気象予報士の航空気象 2012年03月

*All archives   *Admin

2012.03.30 (Fri)

おそかった春一番

RJTT 291700Z 21016KT CAVOK 12/03 Q1022 NOSIG

RJTT 300300Z 21019KT 9999 FEW030 SCT150 OVC200 17/05 Q1019 TEMPO 21025G35KT

RJTT 300900Z 21025G36KT 9999 FEW030 BKN/// 16/07 Q1016 NOSIG RMK 1CU030 A3001

今日は、南風が強く、春分前なら春一番ってとこでしょうか。


今年は、中国地方以外で春一番がありませんでした。


でも、時期が合わなかっただけで、南風が強く、大荒れを予感させる天気は、いつもどおり、訪れるのです。



 
ブログランキングに参加しています。
にほんブログ村 環境ブログ 天気・気象学へ
にほんブログ村
応援クリックをおねがします。


以下、アフィリエイトサイトです。





スポンサーサイト
23:52  |  気象・天気  |  TB(0)  |  CM(0)  |  EDIT  |  Top↑

2012.03.19 (Mon)

今春、初ホーホケキョ

鶯(うぐいす)の初鳴きを確認!


 
ブログランキングに参加しています。
にほんブログ村 環境ブログ 天気・気象学へ
にほんブログ村
応援クリックをおねがします。


以下、アフィリエイトサイトです。





19:52  |  時事  |  TB(0)  |  CM(0)  |  EDIT  |  Top↑

2012.03.11 (Sun)

3.11

震災によって、多くの尊い命が失われたことに深い哀悼の意を表し、また、被災された方々に対し、お見舞い申し上げます。
12:35  |  時事  |  TB(0)  |  CM(0)  |  EDIT  |  Top↑

2012.03.06 (Tue)

啓蟄でした。

バッタを玄関先でみかけました。



 
ブログランキングに参加しています。
にほんブログ村 環境ブログ 天気・気象学へ
にほんブログ村
応援クリックをおねがします。


以下、アフィリエイトサイトです。




18:27  |  二十四節気  |  TB(0)  |  CM(0)  |  EDIT  |  Top↑

2012.03.03 (Sat)

ひなまつり

日本の航空会社の中には、ひなまつりフライトするところがあるのではないでしょうか?
11:33  |  時事  |  TB(0)  |  CM(0)  |  EDIT  |  Top↑
 | BLOGTOP |